Aviation Digital Data Service (ADDS)

Output produced by METARs form (0747 UTC 18 February 2019)
found at http://www.aviationweather.gov/metar/data/
 
METAR text: LUKK 180730Z 36006KT 9999 BKN032 05/01 Q1024 R26/120095 NOSIG
Conditions at: LUKK (CHISINAU INTL , MD) observed 0730 UTC 18 February 2019
Temperature: 5.0°C (41°F)
Dewpoint: 1.0°C (34°F) [RH = 75%]
Pressure (altimeter): 30.24 inches Hg (1024.0 mb)
Winds: from the N (360 degrees) at 7 MPH (6 knots; 3.1 m/s)
Visibility: 6 or more miles (10+ km)
Ceiling: 3200 feet AGL
Clouds: broken clouds at 3200 feet AGL
Weather: no significant weather observed at this time

METAR text: LUKK 180700Z 36006KT 9999 BKN033 05/02 Q1024 R26/120095 NOSIG
Conditions at: LUKK (CHISINAU INTL , MD) observed 0700 UTC 18 February 2019
Temperature: 5.0°C (41°F)
Dewpoint: 2.0°C (36°F) [RH = 81%]
Pressure (altimeter): 30.24 inches Hg (1024.0 mb)
Winds: from the N (360 degrees) at 7 MPH (6 knots; 3.1 m/s)
Visibility: 6 or more miles (10+ km)
Ceiling: 3300 feet AGL
Clouds: broken clouds at 3300 feet AGL
Weather: no significant weather observed at this time

METAR text: LUKK 180630Z 36007KT 9999 BKN033 05/02 Q1023 R26/120095 NOSIG
Conditions at: LUKK (CHISINAU INTL , MD) observed 0630 UTC 18 February 2019
Temperature: 5.0°C (41°F)
Dewpoint: 2.0°C (36°F) [RH = 81%]
Pressure (altimeter): 30.21 inches Hg (1023.0 mb)
Winds: from the N (360 degrees) at 8 MPH (7 knots; 3.6 m/s)
Visibility: 6 or more miles (10+ km)
Ceiling: 3300 feet AGL
Clouds: broken clouds at 3300 feet AGL
Weather: no significant weather observed at this time

METAR text: LUKK 180600Z 36006KT 9999 BKN032 04/01 Q1023 R26/120095 NOSIG
Conditions at: LUKK (CHISINAU INTL , MD) observed 0600 UTC 18 February 2019
Temperature: 4.0°C (39°F)
Dewpoint: 1.0°C (34°F) [RH = 81%]
Pressure (altimeter): 30.21 inches Hg (1023.0 mb)
Winds: from the N (360 degrees) at 7 MPH (6 knots; 3.1 m/s)
Visibility: 6 or more miles (10+ km)
Ceiling: 3200 feet AGL
Clouds: broken clouds at 3200 feet AGL
Weather: no significant weather observed at this time

METAR text: LUKK 180530Z 36006KT CAVOK 04/01 Q1023 R26/120095 NOSIG
Conditions at: LUKK (CHISINAU INTL , MD) observed 0530 UTC 18 February 2019
Temperature: 4.0°C (39°F)
Dewpoint: 1.0°C (34°F) [RH = 81%]
Pressure (altimeter): 30.21 inches Hg (1023.0 mb)
Winds: from the N (360 degrees) at 7 MPH (6 knots; 3.1 m/s)
Visibility: 6 or more miles (10+ km)
Ceiling: ceiling and visibility are OK
Clouds: unknown
Weather: no significant weather observed at this time

METAR text: LUKK 180500Z 36006KT CAVOK 04/01 Q1022 R26/120095 NOSIG
Conditions at: LUKK (CHISINAU INTL , MD) observed 0500 UTC 18 February 2019
Temperature: 4.0°C (39°F)
Dewpoint: 1.0°C (34°F) [RH = 81%]
Pressure (altimeter): 30.18 inches Hg (1022.0 mb)
Winds: from the N (360 degrees) at 7 MPH (6 knots; 3.1 m/s)
Visibility: 6 or more miles (10+ km)
Ceiling: ceiling and visibility are OK
Clouds: unknown
Weather: no significant weather observed at this time

METAR text: LUKK 180430Z 33009KT CAVOK 04/01 Q1022 R08/120095 NOSIG
Conditions at: LUKK (CHISINAU INTL , MD) observed 0430 UTC 18 February 2019
Temperature: 4.0°C (39°F)
Dewpoint: 1.0°C (34°F) [RH = 81%]
Pressure (altimeter): 30.18 inches Hg (1022.0 mb)
Winds: from the NNW (330 degrees) at 10 MPH (9 knots; 4.6 m/s)
Visibility: 6 or more miles (10+ km)
Ceiling: ceiling and visibility are OK
Clouds: unknown
Weather: no significant weather observed at this time

METAR text: LUKK 180400Z 32009KT CAVOK 05/01 Q1022 R08/120095 NOSIG
Conditions at: LUKK (CHISINAU INTL , MD) observed 0400 UTC 18 February 2019
Temperature: 5.0°C (41°F)
Dewpoint: 1.0°C (34°F) [RH = 75%]
Pressure (altimeter): 30.18 inches Hg (1022.0 mb)
Winds: from the NW (320 degrees) at 10 MPH (9 knots; 4.6 m/s)
Visibility: 6 or more miles (10+ km)
Ceiling: ceiling and visibility are OK
Clouds: unknown
Weather: no significant weather observed at this time

METAR text: LUKK 180330Z 30005KT CAVOK 03/00 Q1022 R08/120095 NOSIG
Conditions at: LUKK (CHISINAU INTL , MD) observed 0330 UTC 18 February 2019
Temperature: 3.0°C (37°F)
Dewpoint: 0.0°C (32°F) [RH = 81%]
Pressure (altimeter): 30.18 inches Hg (1022.0 mb)
Winds: from the WNW (300 degrees) at 6 MPH (5 knots; 2.6 m/s)
Visibility: 6 or more miles (10+ km)
Ceiling: ceiling and visibility are OK
Clouds: unknown
Weather: no significant weather observed at this time

METAR text: LUKK 180300Z 30008KT CAVOK 04/01 Q1022 R08/120095 NOSIG
Conditions at: LUKK (CHISINAU INTL , MD) observed 0300 UTC 18 February 2019
Temperature: 4.0°C (39°F)
Dewpoint: 1.0°C (34°F) [RH = 81%]
Pressure (altimeter): 30.18 inches Hg (1022.0 mb)
Winds: from the WNW (300 degrees) at 9 MPH (8 knots; 4.1 m/s)
Visibility: 6 or more miles (10+ km)
Ceiling: ceiling and visibility are OK
Clouds: unknown
Weather: no significant weather observed at this time

METAR text: LUKK 180230Z 32008KT CAVOK 05/01 Q1022 R08/D NOSIG
Conditions at: LUKK (CHISINAU INTL , MD) observed 0230 UTC 18 February 2019
Temperature: 5.0°C (41°F)
Dewpoint: 1.0°C (34°F) [RH = 75%]
Pressure (altimeter): 30.18 inches Hg (1022.0 mb)
Winds: from the NW (320 degrees) at 9 MPH (8 knots; 4.1 m/s)
Visibility: 6 or more miles (10+ km)
Ceiling: ceiling and visibility are OK
Clouds: unknown
Weather: no significant weather observed at this time

METAR text: LUKK 180200Z 36005KT CAVOK 05/01 Q1021 R26/D NOSIG
Conditions at: LUKK (CHISINAU INTL , MD) observed 0200 UTC 18 February 2019
Temperature: 5.0°C (41°F)
Dewpoint: 1.0°C (34°F) [RH = 75%]
Pressure (altimeter): 30.15 inches Hg (1021.0 mb)
Winds: from the N (360 degrees) at 6 MPH (5 knots; 2.6 m/s)
Visibility: 6 or more miles (10+ km)
Ceiling: ceiling and visibility are OK
Clouds: unknown
Weather: no significant weather observed at this time

METAR text: LUKK 180130Z 34004KT CAVOK 06/01 Q1021 R26/D NOSIG
Conditions at: LUKK (CHISINAU INTL , MD) observed 0130 UTC 18 February 2019
Temperature: 6.0°C (43°F)
Dewpoint: 1.0°C (34°F) [RH = 70%]
Pressure (altimeter): 30.15 inches Hg (1021.0 mb)
Winds: from the NNW (340 degrees) at 5 MPH (4 knots; 2.1 m/s)
Visibility: 6 or more miles (10+ km)
Ceiling: ceiling and visibility are OK
Clouds: unknown
Weather: no significant weather observed at this time

METAR text: LUKK 180100Z 35004KT CAVOK 06/01 Q1021 R26/D NOSIG
Conditions at: LUKK (CHISINAU INTL , MD) observed 0100 UTC 18 February 2019
Temperature: 6.0°C (43°F)
Dewpoint: 1.0°C (34°F) [RH = 70%]
Pressure (altimeter): 30.15 inches Hg (1021.0 mb)
Winds: from the N (350 degrees) at 5 MPH (4 knots; 2.1 m/s)
Visibility: 6 or more miles (10+ km)
Ceiling: ceiling and visibility are OK
Clouds: unknown
Weather: no significant weather observed at this time

METAR text: LUKK 180030Z 30004KT CAVOK 06/01 Q1021 R26/D NOSIG
Conditions at: LUKK (CHISINAU INTL , MD) observed 0030 UTC 18 February 2019
Temperature: 6.0°C (43°F)
Dewpoint: 1.0°C (34°F) [RH = 70%]
Pressure (altimeter): 30.15 inches Hg (1021.0 mb)
Winds: from the WNW (300 degrees) at 5 MPH (4 knots; 2.1 m/s)
Visibility: 6 or more miles (10+ km)
Ceiling: ceiling and visibility are OK
Clouds: unknown
Weather: no significant weather observed at this time

METAR text: LUKK 180000Z 30003KT CAVOK 06/01 Q1021 R26/D NOSIG
Conditions at: LUKK (CHISINAU INTL , MD) observed 0000 UTC 18 February 2019
Temperature: 6.0°C (43°F)
Dewpoint: 1.0°C (34°F) [RH = 70%]
Pressure (altimeter): 30.15 inches Hg (1021.0 mb)
Winds: from the WNW (300 degrees) at 3 MPH (3 knots; 1.5 m/s)
Visibility: 6 or more miles (10+ km)
Ceiling: ceiling and visibility are OK
Clouds: unknown
Weather: no significant weather observed at this time

METAR text: LUKK 172330Z 32005KT CAVOK 06/00 Q1021 R08/D NOSIG
Conditions at: LUKK (CHISINAU INTL , MD) observed 2330 UTC 17 February 2019
Temperature: 6.0°C (43°F)
Dewpoint: 0.0°C (32°F) [RH = 65%]
Pressure (altimeter): 30.15 inches Hg (1021.0 mb)
Winds: from the NW (320 degrees) at 6 MPH (5 knots; 2.6 m/s)
Visibility: 6 or more miles (10+ km)
Ceiling: ceiling and visibility are OK
Clouds: unknown
Weather: no significant weather observed at this time

METAR text: LUKK 172300Z 00000KT CAVOK 06/01 Q1021 R26/D NOSIG
Conditions at: LUKK (CHISINAU INTL , MD) observed 2300 UTC 17 February 2019
Temperature: 6.0°C (43°F)
Dewpoint: 1.0°C (34°F) [RH = 70%]
Pressure (altimeter): 30.15 inches Hg (1021.0 mb)
Winds: calm
Visibility: 6 or more miles (10+ km)
Ceiling: ceiling and visibility are OK
Clouds: unknown
Weather: no significant weather observed at this time

METAR text: LUKK 172230Z 00000KT CAVOK 07/01 Q1021 R26/D NOSIG
Conditions at: LUKK (CHISINAU INTL , MD) observed 2230 UTC 17 February 2019
Temperature: 7.0°C (45°F)
Dewpoint: 1.0°C (34°F) [RH = 66%]
Pressure (altimeter): 30.15 inches Hg (1021.0 mb)
Winds: calm
Visibility: 6 or more miles (10+ km)
Ceiling: ceiling and visibility are OK
Clouds: unknown
Weather: no significant weather observed at this time

METAR text: LUKK 172200Z 02003KT CAVOK 07/01 Q1021 R26/D NOSIG
Conditions at: LUKK (CHISINAU INTL , MD) observed 2200 UTC 17 February 2019
Temperature: 7.0°C (45°F)
Dewpoint: 1.0°C (34°F) [RH = 66%]
Pressure (altimeter): 30.15 inches Hg (1021.0 mb)
Winds: from the NNE (20 degrees) at 3 MPH (3 knots; 1.5 m/s)
Visibility: 6 or more miles (10+ km)
Ceiling: ceiling and visibility are OK
Clouds: unknown
Weather: no significant weather observed at this time

METAR text: LUKK 172130Z 36005KT CAVOK 08/01 Q1021 R26/D NOSIG
Conditions at: LUKK (CHISINAU INTL , MD) observed 2130 UTC 17 February 2019
Temperature: 8.0°C (46°F)
Dewpoint: 1.0°C (34°F) [RH = 61%]
Pressure (altimeter): 30.15 inches Hg (1021.0 mb)
Winds: from the N (360 degrees) at 6 MPH (5 knots; 2.6 m/s)
Visibility: 6 or more miles (10+ km)
Ceiling: ceiling and visibility are OK
Clouds: unknown
Weather: no significant weather observed at this time

METAR text: LUKK 172100Z VRB01KT CAVOK 08/01 Q1021 R26/D NOSIG
Conditions at: LUKK (CHISINAU INTL , MD) observed 2100 UTC 17 February 2019
Temperature: 8.0°C (46°F)
Dewpoint: 1.0°C (34°F) [RH = 61%]
Pressure (altimeter): 30.15 inches Hg (1021.0 mb)
Winds: variable direction winds at 1 MPH (1 knots; 0.5 m/s)
Visibility: 6 or more miles (10+ km)
Ceiling: ceiling and visibility are OK
Clouds: unknown
Weather: no significant weather observed at this time

METAR text: LUKK 172030Z 19004KT 160V220 CAVOK 08/00 Q1021 R26/D NOSIG
Conditions at: LUKK (CHISINAU INTL , MD) observed 2030 UTC 17 February 2019
Temperature: 8.0°C (46°F)
Dewpoint: 0.0°C (32°F) [RH = 57%]
Pressure (altimeter): 30.15 inches Hg (1021.0 mb)
Winds: from the S (190 degrees) at 5 MPH (4 knots; 2.1 m/s)
Visibility: 6 or more miles (10+ km)
Ceiling: ceiling and visibility are OK
Clouds: unknown
Weather: no significant weather observed at this time

METAR text: LUKK 172000Z 36006KT 320V060 CAVOK 08/01 Q1021 R26/D NOSIG
Conditions at: LUKK (CHISINAU INTL , MD) observed 2000 UTC 17 February 2019
Temperature: 8.0°C (46°F)
Dewpoint: 1.0°C (34°F) [RH = 61%]
Pressure (altimeter): 30.15 inches Hg (1021.0 mb)
Winds: from the N (360 degrees) at 7 MPH (6 knots; 3.1 m/s)
Visibility: 6 or more miles (10+ km)
Ceiling: ceiling and visibility are OK
Clouds: unknown
Weather: no significant weather observed at this time

METAR text: LUKK 171930Z 34006KT CAVOK 09/01 Q1020 R26/D NOSIG
Conditions at: LUKK (CHISINAU INTL , MD) observed 1930 UTC 17 February 2019
Temperature: 9.0°C (48°F)
Dewpoint: 1.0°C (34°F) [RH = 57%]
Pressure (altimeter): 30.12 inches Hg (1020.0 mb)
Winds: from the NNW (340 degrees) at 7 MPH (6 knots; 3.1 m/s)
Visibility: 6 or more miles (10+ km)
Ceiling: ceiling and visibility are OK
Clouds: unknown
Weather: no significant weather observed at this time

METAR text: LUKK 171900Z 34007KT CAVOK 10/00 Q1020 R26/D NOSIG
Conditions at: LUKK (CHISINAU INTL , MD) observed 1900 UTC 17 February 2019
Temperature: 10.0°C (50°F)
Dewpoint: 0.0°C (32°F) [RH = 50%]
Pressure (altimeter): 30.12 inches Hg (1020.0 mb)
Winds: from the NNW (340 degrees) at 8 MPH (7 knots; 3.6 m/s)
Visibility: 6 or more miles (10+ km)
Ceiling: ceiling and visibility are OK
Clouds: unknown
Weather: no significant weather observed at this time

METAR text: LUKK 171830Z VRB01KT CAVOK 10/00 Q1020 R26/D NOSIG
Conditions at: LUKK (CHISINAU INTL , MD) observed 1830 UTC 17 February 2019
Temperature: 10.0°C (50°F)
Dewpoint: 0.0°C (32°F) [RH = 50%]
Pressure (altimeter): 30.12 inches Hg (1020.0 mb)
Winds: variable direction winds at 1 MPH (1 knots; 0.5 m/s)
Visibility: 6 or more miles (10+ km)
Ceiling: ceiling and visibility are OK
Clouds: unknown
Weather: no significant weather observed at this time

METAR text: LUKK 171800Z VRB01KT CAVOK 08/00 Q1020 R26/D NOSIG
Conditions at: LUKK (CHISINAU INTL , MD) observed 1800 UTC 17 February 2019
Temperature: 8.0°C (46°F)
Dewpoint: 0.0°C (32°F) [RH = 57%]
Pressure (altimeter): 30.12 inches Hg (1020.0 mb)
Winds: variable direction winds at 1 MPH (1 knots; 0.5 m/s)
Visibility: 6 or more miles (10+ km)
Ceiling: ceiling and visibility are OK
Clouds: unknown
Weather: no significant weather observed at this time

METAR text: LUKK 171730Z 29008KT CAVOK 08/M00 Q1020 R08/D NOSIG
Conditions at: LUKK (CHISINAU INTL , MD) observed 1730 UTC 17 February 2019
Temperature: 8.0°C (46°F)
Dewpoint: 0.0°C (32°F) [RH = 57%]
Pressure (altimeter): 30.12 inches Hg (1020.0 mb)
Winds: from the WNW (290 degrees) at 9 MPH (8 knots; 4.1 m/s)
Visibility: 6 or more miles (10+ km)
Ceiling: ceiling and visibility are OK
Clouds: unknown
Weather: no significant weather observed at this time

METAR text: LUKK 171700Z 30009KT CAVOK 09/01 Q1020 R26/D NOSIG
Conditions at: LUKK (CHISINAU INTL , MD) observed 1700 UTC 17 February 2019
Temperature: 9.0°C (48°F)
Dewpoint: 1.0°C (34°F) [RH = 57%]
Pressure (altimeter): 30.12 inches Hg (1020.0 mb)
Winds: from the WNW (300 degrees) at 10 MPH (9 knots; 4.6 m/s)
Visibility: 6 or more miles (10+ km)
Ceiling: ceiling and visibility are OK
Clouds: unknown
Weather: no significant weather observed at this time

METAR text: LUKK 171630Z 29008KT CAVOK 09/01 Q1020 R26/D NOSIG
Conditions at: LUKK (CHISINAU INTL , MD) observed 1630 UTC 17 February 2019
Temperature: 9.0°C (48°F)
Dewpoint: 1.0°C (34°F) [RH = 57%]
Pressure (altimeter): 30.12 inches Hg (1020.0 mb)
Winds: from the WNW (290 degrees) at 9 MPH (8 knots; 4.1 m/s)
Visibility: 6 or more miles (10+ km)
Ceiling: ceiling and visibility are OK
Clouds: unknown
Weather: no significant weather observed at this time

METAR text: LUKK 171600Z 27008KT CAVOK 11/01 Q1020 R08/D NOSIG
Conditions at: LUKK (CHISINAU INTL , MD) observed 1600 UTC 17 February 2019
Temperature: 11.0°C (52°F)
Dewpoint: 1.0°C (34°F) [RH = 50%]
Pressure (altimeter): 30.12 inches Hg (1020.0 mb)
Winds: from the W (270 degrees) at 9 MPH (8 knots; 4.1 m/s)
Visibility: 6 or more miles (10+ km)
Ceiling: ceiling and visibility are OK
Clouds: unknown
Weather: no significant weather observed at this time

METAR text: LUKK 171530Z 30010KT CAVOK 11/01 Q1020 R26/D NOSIG
Conditions at: LUKK (CHISINAU INTL , MD) observed 1530 UTC 17 February 2019
Temperature: 11.0°C (52°F)
Dewpoint: 1.0°C (34°F) [RH = 50%]
Pressure (altimeter): 30.12 inches Hg (1020.0 mb)
Winds: from the WNW (300 degrees) at 12 MPH (10 knots; 5.1 m/s)
Visibility: 6 or more miles (10+ km)
Ceiling: ceiling and visibility are OK
Clouds: unknown
Weather: no significant weather observed at this time

METAR text: LUKK 171500Z 30010KT CAVOK 13/01 Q1020 R26/D NOSIG
Conditions at: LUKK (CHISINAU INTL , MD) observed 1500 UTC 17 February 2019
Temperature: 13.0°C (55°F)
Dewpoint: 1.0°C (34°F) [RH = 44%]
Pressure (altimeter): 30.12 inches Hg (1020.0 mb)
Winds: from the WNW (300 degrees) at 12 MPH (10 knots; 5.1 m/s)
Visibility: 6 or more miles (10+ km)
Ceiling: ceiling and visibility are OK
Clouds: unknown
Weather: no significant weather observed at this time

METAR text: LUKK 171430Z 31013KT CAVOK 14/00 Q1020 R26/D NOSIG
Conditions at: LUKK (CHISINAU INTL , MD) observed 1430 UTC 17 February 2019
Temperature: 14.0°C (57°F)
Dewpoint: 0.0°C (32°F) [RH = 38%]
Pressure (altimeter): 30.12 inches Hg (1020.0 mb)
Winds: from the NW (310 degrees) at 15 MPH (13 knots; 6.7 m/s)
Visibility: 6 or more miles (10+ km)
Ceiling: ceiling and visibility are OK
Clouds: unknown
Weather: no significant weather observed at this time

METAR text: LUKK 171400Z 30013KT CAVOK 15/M01 Q1020 R26/D NOSIG
Conditions at: LUKK (CHISINAU INTL , MD) observed 1400 UTC 17 February 2019
Temperature: 15.0°C (59°F)
Dewpoint: -1.0°C (30°F) [RH = 33%]
Pressure (altimeter): 30.12 inches Hg (1020.0 mb)
Winds: from the WNW (300 degrees) at 15 MPH (13 knots; 6.7 m/s)
Visibility: 6 or more miles (10+ km)
Ceiling: ceiling and visibility are OK
Clouds: unknown
Weather: no significant weather observed at this time

METAR text: LUKK 171330Z 30013KT CAVOK 15/M00 Q1020 R26/D NOSIG
Conditions at: LUKK (CHISINAU INTL , MD) observed 1330 UTC 17 February 2019
Temperature: 15.0°C (59°F)
Dewpoint: 0.0°C (32°F) [RH = 36%]
Pressure (altimeter): 30.12 inches Hg (1020.0 mb)
Winds: from the WNW (300 degrees) at 15 MPH (13 knots; 6.7 m/s)
Visibility: 6 or more miles (10+ km)
Ceiling: ceiling and visibility are OK
Clouds: unknown
Weather: no significant weather observed at this time

METAR text: LUKK 171300Z 30013KT CAVOK 15/M01 Q1021 R26/D NOSIG
Conditions at: LUKK (CHISINAU INTL , MD) observed 1300 UTC 17 February 2019
Temperature: 15.0°C (59°F)
Dewpoint: -1.0°C (30°F) [RH = 33%]
Pressure (altimeter): 30.15 inches Hg (1021.0 mb)
Winds: from the WNW (300 degrees) at 15 MPH (13 knots; 6.7 m/s)
Visibility: 6 or more miles (10+ km)
Ceiling: ceiling and visibility are OK
Clouds: unknown
Weather: no significant weather observed at this time

METAR text: LUKK 171230Z 31014KT CAVOK 15/M00 Q1021 R26/D NOSIG
Conditions at: LUKK (CHISINAU INTL , MD) observed 1230 UTC 17 February 2019
Temperature: 15.0°C (59°F)
Dewpoint: 0.0°C (32°F) [RH = 36%]
Pressure (altimeter): 30.15 inches Hg (1021.0 mb)
Winds: from the NW (310 degrees) at 16 MPH (14 knots; 7.2 m/s)
Visibility: 6 or more miles (10+ km)
Ceiling: ceiling and visibility are OK
Clouds: unknown
Weather: no significant weather observed at this time

METAR text: LUKK 171200Z 32014KT CAVOK 15/M01 Q1021 R26/D NOSIG
Conditions at: LUKK (CHISINAU INTL , MD) observed 1200 UTC 17 February 2019
Temperature: 15.0°C (59°F)
Dewpoint: -1.0°C (30°F) [RH = 33%]
Pressure (altimeter): 30.15 inches Hg (1021.0 mb)
Winds: from the NW (320 degrees) at 16 MPH (14 knots; 7.2 m/s)
Visibility: 6 or more miles (10+ km)
Ceiling: ceiling and visibility are OK
Clouds: unknown
Weather: no significant weather observed at this time

METAR text: LUKK 171130Z 32012KT CAVOK 15/M00 Q1022 R26/D NOSIG
Conditions at: LUKK (CHISINAU INTL , MD) observed 1130 UTC 17 February 2019
Temperature: 15.0°C (59°F)
Dewpoint: 0.0°C (32°F) [RH = 36%]
Pressure (altimeter): 30.18 inches Hg (1022.0 mb)
Winds: from the NW (320 degrees) at 14 MPH (12 knots; 6.2 m/s)
Visibility: 6 or more miles (10+ km)
Ceiling: ceiling and visibility are OK
Clouds: unknown
Weather: no significant weather observed at this time

METAR text: LUKK 171100Z 34011KT CAVOK 15/01 Q1022 R26/D NOSIG
Conditions at: LUKK (CHISINAU INTL , MD) observed 1100 UTC 17 February 2019
Temperature: 15.0°C (59°F)
Dewpoint: 1.0°C (34°F) [RH = 39%]
Pressure (altimeter): 30.18 inches Hg (1022.0 mb)
Winds: from the NNW (340 degrees) at 13 MPH (11 knots; 5.7 m/s)
Visibility: 6 or more miles (10+ km)
Ceiling: ceiling and visibility are OK
Clouds: unknown
Weather: no significant weather observed at this time

METAR text: LUKK 171030Z 34013KT 310V010 CAVOK 14/01 Q1023 R26/D NOSIG
Conditions at: LUKK (CHISINAU INTL , MD) observed 1030 UTC 17 February 2019
Temperature: 14.0°C (57°F)
Dewpoint: 1.0°C (34°F) [RH = 41%]
Pressure (altimeter): 30.21 inches Hg (1023.0 mb)
Winds: from the NNW (340 degrees) at 15 MPH (13 knots; 6.7 m/s)
Visibility: 6 or more miles (10+ km)
Ceiling: ceiling and visibility are OK
Clouds: unknown
Weather: no significant weather observed at this time

METAR text: LUKK 171000Z 32011KT 290V350 CAVOK 14/01 Q1023 R08/190095 NOSIG
Conditions at: LUKK (CHISINAU INTL , MD) observed 1000 UTC 17 February 2019
Temperature: 14.0°C (57°F)
Dewpoint: 1.0°C (34°F) [RH = 41%]
Pressure (altimeter): 30.21 inches Hg (1023.0 mb)
Winds: from the NW (320 degrees) at 13 MPH (11 knots; 5.7 m/s)
Visibility: 6 or more miles (10+ km)
Ceiling: ceiling and visibility are OK
Clouds: unknown
Weather: no significant weather observed at this time

METAR text: LUKK 170930Z 01006KT 8000 NSC 11/03 Q1024 R08/190095 NOSIG
Conditions at: LUKK (CHISINAU INTL , MD) observed 0930 UTC 17 February 2019
Temperature: 11.0°C (52°F)
Dewpoint: 3.0°C (37°F) [RH = 58%]
Pressure (altimeter): 30.24 inches Hg (1024.0 mb)
Winds: from the N (10 degrees) at 7 MPH (6 knots; 3.1 m/s)
Visibility: 5 miles ( 8 km)
Ceiling: at least 12,000 feet AGL
Clouds: sky clear below 12,000 feet AGL
Weather: no significant weather observed at this time

METAR text: LUKK 170900Z 00000KT 5000 BR NSC 10/05 Q1024 R26/190095 NOSIG
Conditions at: LUKK (CHISINAU INTL , MD) observed 0900 UTC 17 February 2019
Temperature: 10.0°C (50°F)
Dewpoint: 5.0°C (41°F) [RH = 71%]
Pressure (altimeter): 30.24 inches Hg (1024.0 mb)
Winds: calm
Visibility: 3 miles ( 5 km)
Ceiling: at least 12,000 feet AGL
Clouds: sky clear below 12,000 feet AGL
Weather: BR  (mist)

METAR text: LUKK 170830Z 00000KT 4200 BR NSC 09/05 Q1024 R26/190095 NOSIG
Conditions at: LUKK (CHISINAU INTL , MD) observed 0830 UTC 17 February 2019
Temperature: 9.0°C (48°F)
Dewpoint: 5.0°C (41°F) [RH = 76%]
Pressure (altimeter): 30.24 inches Hg (1024.0 mb)
Winds: calm
Visibility: 2.61 miles (4.20 km)
Ceiling: at least 12,000 feet AGL
Clouds: sky clear below 12,000 feet AGL
Weather: BR  (mist)

METAR text: LUKK 170800Z VRB02KT 3400 BR NSC 08/04 Q1024 R26/190095 NOSIG
Conditions at: LUKK (CHISINAU INTL , MD) observed 0800 UTC 17 February 2019
Temperature: 8.0°C (46°F)
Dewpoint: 4.0°C (39°F) [RH = 76%]
Pressure (altimeter): 30.24 inches Hg (1024.0 mb)
Winds: variable direction winds at 2 MPH (2 knots; 1.0 m/s)
Visibility: 2.11 miles (3.40 km)
Ceiling: at least 12,000 feet AGL
Clouds: sky clear below 12,000 feet AGL
Weather: BR  (mist)

METAR text: LUKK 170730Z 00000KT 1900 R26/P2000D BR NSC 06/04 Q1024 R26/190095 NOSIG
Conditions at: LUKK (CHISINAU INTL , MD) observed 0730 UTC 17 February 2019
Temperature: 6.0°C (43°F)
Dewpoint: 4.0°C (39°F) [RH = 87%]
Pressure (altimeter): 30.24 inches Hg (1024.0 mb)
Winds: calm
Visibility: 1.18 miles (1.90 km)
Ceiling: at least 12,000 feet AGL
Clouds: sky clear below 12,000 feet AGL
Weather: BR  (mist)

METAR text: LUKK 170700Z 00000KT 2000 R26/2000N BR NSC 04/03 Q1024 R26/190095 NOSIG
Conditions at: LUKK (CHISINAU INTL , MD) observed 0700 UTC 17 February 2019
Temperature: 4.0°C (39°F)
Dewpoint: 3.0°C (37°F) [RH = 93%]
Pressure (altimeter): 30.24 inches Hg (1024.0 mb)
Winds: calm
Visibility: 1.24 miles (2.00 km)
Ceiling: at least 12,000 feet AGL
Clouds: sky clear below 12,000 feet AGL
Weather: BR  (mist)

METAR text: LUKK 170630Z 00000KT 0900 R26/0900N FG NSC 04/03 Q1024 R26/190095 NOSIG
Conditions at: LUKK (CHISINAU INTL , MD) observed 0630 UTC 17 February 2019
Temperature: 4.0°C (39°F)
Dewpoint: 3.0°C (37°F) [RH = 93%]
Pressure (altimeter): 30.24 inches Hg (1024.0 mb)
Winds: calm
Visibility: 0.56 miles (0.90 km)
Ceiling: at least 12,000 feet AGL
Clouds: sky clear below 12,000 feet AGL
Weather: FG  (fog)

METAR text: LUKK 170600Z 34004KT 1200 R26/1300D BR NSC 01/01 Q1024 R26/190095 NOSIG
Conditions at: LUKK (CHISINAU INTL , MD) observed 0600 UTC 17 February 2019
Temperature: 1.0°C (34°F)
Dewpoint: 1.0°C (34°F) [RH = 100%]
Pressure (altimeter): 30.24 inches Hg (1024.0 mb)
Winds: from the NNW (340 degrees) at 5 MPH (4 knots; 2.1 m/s)
Visibility: 0.75 miles (1.21 km)
Ceiling: at least 12,000 feet AGL
Clouds: sky clear below 12,000 feet AGL
Weather: BR  (mist)

METAR text: LUKK 170530Z 33004KT 0600 R26/0750U FG NSC 02/01 Q1024 R26/190095 NOSIG
Conditions at: LUKK (CHISINAU INTL , MD) observed 0530 UTC 17 February 2019
Temperature: 2.0°C (36°F)
Dewpoint: 1.0°C (34°F) [RH = 93%]
Pressure (altimeter): 30.24 inches Hg (1024.0 mb)
Winds: from the NNW (330 degrees) at 5 MPH (4 knots; 2.1 m/s)
Visibility: 0.37 miles (0.60 km)
Ceiling: at least 12,000 feet AGL
Clouds: sky clear below 12,000 feet AGL
Weather: FG  (fog)

METAR text: LUKK 170500Z 00000KT 1200 R26/P2000U BR NSC 01/01 Q1024 R26/190095 NOSIG
Conditions at: LUKK (CHISINAU INTL , MD) observed 0500 UTC 17 February 2019
Temperature: 1.0°C (34°F)
Dewpoint: 1.0°C (34°F) [RH = 100%]
Pressure (altimeter): 30.24 inches Hg (1024.0 mb)
Winds: calm
Visibility: 0.75 miles (1.21 km)
Ceiling: at least 12,000 feet AGL
Clouds: sky clear below 12,000 feet AGL
Weather: BR  (mist)

METAR text: LUKK 170430Z 00000KT 0600 R26/1600U FG NSC 01/01 Q1024 R26/190095 NOSIG
Conditions at: LUKK (CHISINAU INTL , MD) observed 0430 UTC 17 February 2019
Temperature: 1.0°C (34°F)
Dewpoint: 1.0°C (34°F) [RH = 100%]
Pressure (altimeter): 30.24 inches Hg (1024.0 mb)
Winds: calm
Visibility: 0.37 miles (0.60 km)
Ceiling: at least 12,000 feet AGL
Clouds: sky clear below 12,000 feet AGL
Weather: FG  (fog)

METAR text: LUKK 170400Z 00000KT 1600 R26/P2000U BR NSC 00/00 Q1024 R26/190095 NOSIG
Conditions at: LUKK (CHISINAU INTL , MD) observed 0400 UTC 17 February 2019
Temperature: 0.0°C (32°F)
Dewpoint: 0.0°C (32°F) [RH = 100%]
Pressure (altimeter): 30.24 inches Hg (1024.0 mb)
Winds: calm
Visibility: 0.99 miles (1.59 km)
Ceiling: at least 12,000 feet AGL
Clouds: sky clear below 12,000 feet AGL
Weather: BR  (mist)

METAR text: LUKK 170330Z 27004KT 0200 R08/1200U PRFG NSC 01/01 Q1024 R08/190095 NOSIG
Conditions at: LUKK (CHISINAU INTL , MD) observed 0330 UTC 17 February 2019
Temperature: 1.0°C (34°F)
Dewpoint: 1.0°C (34°F) [RH = 100%]
Pressure (altimeter): 30.24 inches Hg (1024.0 mb)
Winds: from the W (270 degrees) at 5 MPH (4 knots; 2.1 m/s)
Visibility: 0.12 miles (0.19 km)
Ceiling: at least 12,000 feet AGL
Clouds: sky clear below 12,000 feet AGL
Weather: PRFG  (partial fog)

METAR text: LUKK 170300Z 00000KT 0200 R08/1200U FG VV004 01/01 Q1024 R08/120095 TEMPO 0100 FG
Conditions at: LUKK (CHISINAU INTL , MD) observed 0300 UTC 17 February 2019
Temperature: 1.0°C (34°F)
Dewpoint: 1.0°C (34°F) [RH = 100%]
Pressure (altimeter): 30.24 inches Hg (1024.0 mb)
Winds: calm
Visibility: 0.12 miles (0.19 km)
Ceiling: indefinite ceiling with vertical visibility of 400 feet AGL
Clouds: obscured sky
Weather: FG  (fog)

METAR text: LUKK 170230Z 00000KT 0050 R08/0500U FG VV005 02/02 Q1024 R08/120095 TEMPO 0100 FG
Conditions at: LUKK (CHISINAU INTL , MD) observed 0230 UTC 17 February 2019
Temperature: 2.0°C (36°F)
Dewpoint: 2.0°C (36°F) [RH = 100%]
Pressure (altimeter): 30.24 inches Hg (1024.0 mb)
Winds: calm
Visibility: 0.03 miles (0.05 km)
Ceiling: indefinite ceiling with vertical visibility of 500 feet AGL
Clouds: obscured sky
Weather: FG  (fog)

METAR text: LUKK 170200Z 01002KT 1000 R08/P2000N BR SCT008 01/01 Q1024 R08/120095 TEMPO 0100 FG
Conditions at: LUKK (CHISINAU INTL , MD) observed 0200 UTC 17 February 2019
Temperature: 1.0°C (34°F)
Dewpoint: 1.0°C (34°F) [RH = 100%]
Pressure (altimeter): 30.24 inches Hg (1024.0 mb)
Winds: from the N (10 degrees) at 2 MPH (2 knots; 1.0 m/s)
Visibility: 0.62 miles (1.00 km)
Ceiling: at least 12,000 feet AGL
Clouds: scattered clouds at 800 feet AGL
Weather: BR  (mist)

METAR text: LUKK 170130Z 28002KT 0100 R08/P2000D PRFG FEW008 02/02 Q1024 R08/120095 BECMG 0200 FG
Conditions at: LUKK (CHISINAU INTL , MD) observed 0130 UTC 17 February 2019
Temperature: 2.0°C (36°F)
Dewpoint: 2.0°C (36°F) [RH = 100%]
Pressure (altimeter): 30.24 inches Hg (1024.0 mb)
Winds: from the W (280 degrees) at 2 MPH (2 knots; 1.0 m/s)
Visibility: 0.06 miles (0.10 km)
Ceiling: at least 12,000 feet AGL
Clouds: few clouds at 800 feet AGL
Weather: PRFG  (partial fog)

METAR text: LUKK 170100Z VRB01KT 1100 R08/1200U BR NSC 01/01 Q1025 R08/120095 BECMG 0200 FG
Conditions at: LUKK (CHISINAU INTL , MD) observed 0100 UTC 17 February 2019
Temperature: 1.0°C (34°F)
Dewpoint: 1.0°C (34°F) [RH = 100%]
Pressure (altimeter): 30.27 inches Hg (1025.0 mb)
Winds: variable direction winds at 1 MPH (1 knots; 0.5 m/s)
Visibility: 0.68 miles (1.09 km)
Ceiling: at least 12,000 feet AGL
Clouds: sky clear below 12,000 feet AGL
Weather: BR  (mist)

METAR text: LUKK 170030Z VRB02KT 0800 R08/1600D PRFG NSC 01/00 Q1025 R08/120095 BECMG 0200 FG
Conditions at: LUKK (CHISINAU INTL , MD) observed 0030 UTC 17 February 2019
Temperature: 1.0°C (34°F)
Dewpoint: 0.0°C (32°F) [RH = 93%]
Pressure (altimeter): 30.27 inches Hg (1025.0 mb)
Winds: variable direction winds at 2 MPH (2 knots; 1.0 m/s)
Visibility: 0.50 miles (0.80 km)
Ceiling: at least 12,000 feet AGL
Clouds: sky clear below 12,000 feet AGL
Weather: PRFG  (partial fog)

METAR text: LUKK 170000Z 00000KT 1400 R08/2000D BR NSC 02/01 Q1025 R08/120095 BECMG 0200 FG
Conditions at: LUKK (CHISINAU INTL , MD) observed 0000 UTC 17 February 2019
Temperature: 2.0°C (36°F)
Dewpoint: 1.0°C (34°F) [RH = 93%]
Pressure (altimeter): 30.27 inches Hg (1025.0 mb)
Winds: calm
Visibility: 0.87 miles (1.40 km)
Ceiling: at least 12,000 feet AGL
Clouds: sky clear below 12,000 feet AGL
Weather: BR  (mist)

METAR text: LUKK 162330Z 00000KT 1300 R08/P2000D BR NSC 03/03 Q1025 R08/120095 BECMG 0200 FG
Conditions at: LUKK (CHISINAU INTL , MD) observed 2330 UTC 16 February 2019
Temperature: 3.0°C (37°F)
Dewpoint: 3.0°C (37°F) [RH = 100%]
Pressure (altimeter): 30.27 inches Hg (1025.0 mb)
Winds: calm
Visibility: 0.81 miles (1.30 km)
Ceiling: at least 12,000 feet AGL
Clouds: sky clear below 12,000 feet AGL
Weather: BR  (mist)

METAR text: LUKK 162300Z 06002KT 2100 BR NSC 03/02 Q1025 R08/120095 BECMG 1200 BR
Conditions at: LUKK (CHISINAU INTL , MD) observed 2300 UTC 16 February 2019
Temperature: 3.0°C (37°F)
Dewpoint: 2.0°C (36°F) [RH = 93%]
Pressure (altimeter): 30.27 inches Hg (1025.0 mb)
Winds: from the ENE (60 degrees) at 2 MPH (2 knots; 1.0 m/s)
Visibility: 1.30 miles (2.09 km)
Ceiling: at least 12,000 feet AGL
Clouds: sky clear below 12,000 feet AGL
Weather: BR  (mist)

METAR text: LUKK 162230Z VRB02KT 2300 BR NSC 02/01 Q1026 R08/120095 BECMG 1200 BR
Conditions at: LUKK (CHISINAU INTL , MD) observed 2230 UTC 16 February 2019
Temperature: 2.0°C (36°F)
Dewpoint: 1.0°C (34°F) [RH = 93%]
Pressure (altimeter): 30.30 inches Hg (1026.0 mb)
Winds: variable direction winds at 2 MPH (2 knots; 1.0 m/s)
Visibility: 1.43 miles (2.30 km)
Ceiling: at least 12,000 feet AGL
Clouds: sky clear below 12,000 feet AGL
Weather: BR  (mist)

METAR text: LUKK 162200Z 28005KT 2300 BR NSC 03/02 Q1026 R08/120095 BECMG 1200 BR
Conditions at: LUKK (CHISINAU INTL , MD) observed 2200 UTC 16 February 2019
Temperature: 3.0°C (37°F)
Dewpoint: 2.0°C (36°F) [RH = 93%]
Pressure (altimeter): 30.30 inches Hg (1026.0 mb)
Winds: from the W (280 degrees) at 6 MPH (5 knots; 2.6 m/s)
Visibility: 1.43 miles (2.30 km)
Ceiling: at least 12,000 feet AGL
Clouds: sky clear below 12,000 feet AGL
Weather: BR  (mist)

METAR text: LUKK 162130Z 27005KT 2600 BR NSC 03/02 Q1026 R08/120095 BECMG 1200 BR
Conditions at: LUKK (CHISINAU INTL , MD) observed 2130 UTC 16 February 2019
Temperature: 3.0°C (37°F)
Dewpoint: 2.0°C (36°F) [RH = 93%]
Pressure (altimeter): 30.30 inches Hg (1026.0 mb)
Winds: from the W (270 degrees) at 6 MPH (5 knots; 2.6 m/s)
Visibility: 1.62 miles (2.61 km)
Ceiling: at least 12,000 feet AGL
Clouds: sky clear below 12,000 feet AGL
Weather: BR  (mist)

METAR text: LUKK 162100Z 27005KT 2800 BR NSC 03/02 Q1026 R08/120095 BECMG 1200 BR
Conditions at: LUKK (CHISINAU INTL , MD) observed 2100 UTC 16 February 2019
Temperature: 3.0°C (37°F)
Dewpoint: 2.0°C (36°F) [RH = 93%]
Pressure (altimeter): 30.30 inches Hg (1026.0 mb)
Winds: from the W (270 degrees) at 6 MPH (5 knots; 2.6 m/s)
Visibility: 1.74 miles (2.80 km)
Ceiling: at least 12,000 feet AGL
Clouds: sky clear below 12,000 feet AGL
Weather: BR  (mist)

METAR text: LUKK 162030Z 27004KT 2700 BR NSC 03/02 Q1026 R08/120095 NOSIG
Conditions at: LUKK (CHISINAU INTL , MD) observed 2030 UTC 16 February 2019
Temperature: 3.0°C (37°F)
Dewpoint: 2.0°C (36°F) [RH = 93%]
Pressure (altimeter): 30.30 inches Hg (1026.0 mb)
Winds: from the W (270 degrees) at 5 MPH (4 knots; 2.1 m/s)
Visibility: 1.68 miles (2.70 km)
Ceiling: at least 12,000 feet AGL
Clouds: sky clear below 12,000 feet AGL
Weather: BR  (mist)

METAR text: LUKK 162000Z 30003KT 3200 BR NSC 03/02 Q1026 R08/120095 NOSIG
Conditions at: LUKK (CHISINAU INTL , MD) observed 2000 UTC 16 February 2019
Temperature: 3.0°C (37°F)
Dewpoint: 2.0°C (36°F) [RH = 93%]
Pressure (altimeter): 30.30 inches Hg (1026.0 mb)
Winds: from the WNW (300 degrees) at 3 MPH (3 knots; 1.5 m/s)
Visibility: 1.99 miles (3.20 km)
Ceiling: at least 12,000 feet AGL
Clouds: sky clear below 12,000 feet AGL
Weather: BR  (mist)

Forecast for: LUKK (CHISINAU INTL , MD)
Text: TAF LUKK 180520Z 1806/1906 36009KT 9999 BKN025
Forecast period: 0600 to 1800 UTC 18 February 2019
Forecast type: FROM: standard forecast or significant change
Winds: from the N (360 degrees) at 10 MPH (9 knots; 4.6 m/s)
Visibility: 6 or more miles 10+ km)
Ceiling: 2500 feet AGL
Clouds: broken clouds at 2500 feet AGL
Weather: no significant weather forecast for this period
Text: BECMG 1818/1820 VRB04KT
Forecast period: 1800 UTC 18 February 2019 to 0600 UTC 19 February 2019
Forecast type: BECOMING: Conditions expected to become as follows by 2000 UTC 18 February 2019
Winds: variable direction winds at 5 MPH (4 knots; 2.1 m/s)
Visibility: 6 or more miles 10+ km)
Ceiling: 2500 feet AGL
Clouds: broken clouds at 2500 feet AGL
Weather: no significant weather forecast for this period
Text: TEMPO 1820/1906 5000 BR
Forecast period: 2000 UTC 18 February 2019 to 0600 UTC 19 February 2019
Forecast type: TEMPORARY: The following changes expected for less than half the time period
Visibility: 3 miles (5 km)
Ceiling: unknown
Clouds: missing
Weather: BR  (mist)